Wadena, Iowa
Current Conditions -  °F | °C
As of 1:55 PM on Wednesday 17 Dec 2014 (Local Time) from KOLZ Reporting Station
Clear Clear  
Wind Chill: 13°   Ceiling: Unl
Heat Index: 23°   Visibility: 10mi
Dew Point: 14°   Wind: 9mph
Humidity: 68%   Direction: 350°N
Pressure: 30.25"   Gusts: NA
Location:  42.84°N, 91.66°W
Report Text: KOLZ 171955Z AUTO 35008KT 10SM CLR M05/M10 A3025 RMK AO2
Loading
Personal Weather Stations






























Interactive Weather Map New forecast layout! Learn more

10-Day Weather Forecast

Advertisements
Track Severe Weather on mobile